Time;durP1;ratioP1;P1;durP2;ratioP2;P2;SDS_P1;SDS_P2;PMS_P1;PMS_P2;Temp;Humidity;BMP_temperature;BMP_pressure;BME280_temperature;BME280_humidity;BME280_pressure;Samples;Min_cycle;Max_cycle;Signal;HPM_P1;HPM_P2
2021/12/27 00:01:27;;;;;;;8.45;2.75;;;;;;;-13.93;83.81;98910.16;5045770;28;20398;-70
2021/12/27 00:03:54;;;;;;;10.63;3.40;;;;;;;-14.03;84.16;98898.16;5031096;28;20045;-69
2021/12/27 00:06:20;;;;;;;11.95;2.50;;;;;;;-13.99;84.05;98893.78;5029524;28;20064;-69
2021/12/27 00:08:46;;;;;;;6.85;2.20;;;;;;;-14.16;84.58;98896.59;5029849;28;20045;-69
2021/12/27 00:11:13;;;;;;;10.00;3.10;;;;;;;-14.00;84.02;98903.31;5028801;28;20045;-69
2021/12/27 00:13:40;;;;;;;9.25;3.33;;;;;;;-14.13;84.52;98886.16;5012834;28;20049;-68
2021/12/27 00:16:06;;;;;;;9.68;3.33;;;;;;;-13.97;84.62;98923.19;5029435;28;20068;-69
2021/12/27 00:18:31;;;;;;;9.80;3.55;;;;;;;-14.03;84.52;98923.28;5029040;28;20147;-69
2021/12/27 00:20:57;;;;;;;4.57;1.38;;;;;;;-14.30;84.69;98875.13;5015113;28;20474;-68
2021/12/27 00:23:23;;;;;;;9.88;2.85;;;;;;;-14.02;85.22;98919.78;5019737;28;20087;-69
2021/12/27 00:25:49;;;;;;;8.23;2.10;;;;;;;-14.34;85.36;98882.06;5018003;28;20041;-70
2021/12/27 00:28:15;;;;;;;9.23;3.00;;;;;;;-14.35;85.60;98876.03;5050183;28;20041;-69
2021/12/27 00:30:41;;;;;;;9.65;2.92;;;;;;;-14.08;85.51;98925.91;5032331;28;20124;-69
2021/12/27 00:33:08;;;;;;;12.25;2.78;;;;;;;-14.15;85.90;98929.44;5014575;28;20366;-69
2021/12/27 00:35:36;;;;;;;9.20;3.00;;;;;;;-14.18;85.84;98929.50;5048077;28;20096;-71
2021/12/27 00:38:02;;;;;;;8.02;2.63;;;;;;;-14.18;86.07;98919.13;5031053;28;20044;-70
2021/12/27 00:40:28;;;;;;;7.93;1.90;;;;;;;-14.25;86.09;98917.47;5047434;28;20045;-69
2021/12/27 00:42:54;;;;;;;7.60;2.28;;;;;;;-14.15;86.15;98935.53;5048471;28;20140;-68
2021/12/27 00:45:20;;;;;;;10.75;2.35;;;;;;;-14.17;86.52;98941.59;5048719;28;20098;-69
2021/12/27 00:47:48;;;;;;;9.73;3.10;;;;;;;-14.18;86.61;98945.06;5032444;28;20048;-67
2021/12/27 00:50:14;;;;;;;9.60;2.65;;;;;;;-14.25;87.22;98941.69;5049142;28;20052;-69
2021/12/27 00:52:40;;;;;;;10.20;2.90;;;;;;;-14.25;87.36;98943.44;5048781;28;20076;-69
2021/12/27 00:55:09;;;;;;;9.35;3.45;;;;;;;-14.22;87.29;98954.63;5050041;28;20041;-68
2021/12/27 00:57:35;;;;;;;9.30;2.35;;;;;;;-14.28;87.18;98953.84;5050827;28;20045;-68
2021/12/27 01:00:02;;;;;;;9.38;2.72;;;;;;;-14.21;87.62;98965.88;5016142;28;20049;-69
2021/12/27 01:02:30;;;;;;;8.32;2.83;;;;;;;-14.21;87.17;98951.16;5050272;28;20052;-69
2021/12/27 01:04:55;;;;;;;8.63;2.72;;;;;;;-14.03;87.13;98973.47;5048812;28;20102;-70
2021/12/27 01:07:21;;;;;;;8.55;2.75;;;;;;;-14.18;86.48;98943.34;5050455;28;20124;-69
2021/12/27 01:15:10;;;;;;;9.75;2.53;;;;;;;-13.91;86.04;98952.53;5049182;28;20064;-70
2021/12/27 01:17:39;;;;;;;11.73;2.92;;;;;;;-13.83;85.64;98967.19;5049997;28;20581;-69
2021/12/27 01:20:07;;;;;;;8.80;2.63;;;;;;;-13.97;86.17;98954.34;5048179;28;20044;-71
2021/12/27 01:22:33;;;;;;;9.27;3.10;;;;;;;-14.28;86.29;98907.13;5050310;28;20055;-68
2021/12/27 01:24:59;;;;;;;11.00;2.85;;;;;;;-14.19;85.91;98922.56;5050615;28;20498;-68
2021/12/27 01:27:25;;;;;;;9.30;2.78;;;;;;;-13.80;86.07;98993.13;5050182;28;20052;-69
2021/12/27 01:29:51;;;;;;;12.00;3.58;;;;;;;-13.81;86.54;98988.81;5015541;28;20136;-68
2021/12/27 01:32:17;;;;;;;9.23;2.85;;;;;;;-13.80;86.45;98993.13;5015191;28;20140;-68
2021/12/27 01:34:43;;;;;;;11.80;2.70;;;;;;;-13.75;86.52;99004.31;5031585;28;20140;-69
2021/12/27 01:37:09;;;;;;;11.70;3.53;;;;;;;-13.77;86.21;98993.09;5031983;28;20573;-69
2021/12/27 01:39:35;;;;;;;9.63;2.45;;;;;;;-13.84;85.97;98971.53;5048334;28;20139;-68
2021/12/27 01:42:01;;;;;;;8.63;2.70;;;;;;;-13.73;86.07;99005.16;5031897;28;20044;-69
2021/12/27 01:44:26;;;;;;;8.52;2.40;;;;;;;-13.75;85.89;98999.09;5048531;28;20057;-69
2021/12/27 01:46:53;;;;;;;10.98;3.30;;;;;;;-13.77;86.17;98987.91;5031461;28;20045;-68
2021/12/27 01:49:19;;;;;;;9.48;3.33;;;;;;;-13.68;85.90;99003.34;5049449;28;20044;-69
2021/12/27 01:51:45;;;;;;;9.80;2.90;;;;;;;-13.67;85.77;98995.56;5031497;28;20179;-69
2021/12/27 01:54:11;;;;;;;7.03;2.10;;;;;;;-13.66;85.88;98994.69;5048407;28;20143;-69
2021/12/27 01:56:37;;;;;;;7.78;2.80;;;;;;;-13.61;85.85;98999.81;5049821;28;20457;-70
2021/12/27 01:59:03;;;;;;;10.05;3.08;;;;;;;-13.54;85.53;99017.06;5032268;28;20116;-69
2021/12/27 02:01:29;;;;;;;9.73;2.85;;;;;;;-13.59;85.61;99002.41;5051919;28;20194;-69
2021/12/27 02:03:56;;;;;;;9.30;2.70;;;;;;;-13.51;85.74;99031.75;5035267;28;20049;-69
2021/12/27 02:06:23;;;;;;;7.32;2.42;;;;;;;-13.57;85.75;99013.63;5035372;28;20045;-68
2021/12/27 02:08:49;;;;;;;6.97;2.00;;;;;;;-13.52;85.37;99033.50;5051580;28;20041;-69
2021/12/27 02:11:17;;;;;;;10.85;2.47;;;;;;;-13.51;85.94;99030.00;5051266;28;20036;-70
2021/12/27 02:13:45;;;;;;;11.32;3.20;;;;;;;-13.50;85.68;99034.31;5053166;28;20447;-70
2021/12/27 02:16:14;;;;;;;9.60;3.13;;;;;;;-13.62;85.69;99003.28;5053701;28;20376;-68
2021/12/27 02:18:40;;;;;;;9.52;3.30;;;;;;;-13.56;84.89;99012.75;5053318;28;20130;-68
2021/12/27 02:21:06;;;;;;;9.77;2.95;;;;;;;-13.39;85.12;99039.41;5053406;28;20078;-70
2021/12/27 02:23:32;;;;;;;10.10;3.10;;;;;;;-13.38;85.09;99039.41;5052384;28;20122;-69
2021/12/27 02:25:58;;;;;;;9.73;3.33;;;;;;;-13.37;85.36;99041.09;5035048;28;20516;-70
2021/12/27 02:28:24;;;;;;;8.70;2.92;;;;;;;-13.63;85.09;99002.44;5017902;28;20102;-69
2021/12/27 02:30:51;;;;;;;10.60;2.97;;;;;;;-13.54;85.10;99016.19;5018080;28;20049;-69
2021/12/27 02:33:18;;;;;;;7.75;2.33;;;;;;;-13.35;85.36;99054.06;5051986;28;20059;-69
2021/12/27 02:35:48;;;;;;;9.57;2.78;;;;;;;-13.61;85.46;99015.41;5018086;28;20101;-69
2021/12/27 02:38:18;;;;;;;8.65;2.53;;;;;;;-13.38;85.95;99059.28;5052557;28;20409;-69
2021/12/27 02:40:44;;;;;;;10.18;2.85;;;;;;;-13.31;85.87;99065.28;5034439;28;20032;-69
2021/12/27 02:43:13;;;;;;;9.70;2.83;;;;;;;-13.37;85.54;99067.09;5017723;28;20053;-69
2021/12/27 02:45:46;;;;;;;9.75;2.67;;;;;;;-13.29;85.32;99068.75;5033104;28;20049;-69
2021/12/27 02:48:14;;;;;;;10.15;3.05;;;;;;;-13.27;85.53;99066.97;5049250;28;20144;-69
2021/12/27 02:50:41;;;;;;;10.13;3.60;;;;;;;-13.22;85.60;99083.38;5032640;28;20120;-69
2021/12/27 02:53:08;;;;;;;10.55;3.53;;;;;;;-13.22;85.02;99080.75;5051205;28;20055;-69
2021/12/27 02:55:34;;;;;;;9.55;3.42;;;;;;;-13.19;85.40;99080.72;5052125;28;20045;-69
2021/12/27 02:58:00;;;;;;;58.13;14.02;;;;;;;-13.18;85.91;99093.69;5051700;28;20059;-69
2021/12/27 03:00:29;;;;;;;10.07;3.90;;;;;;;-13.21;85.31;99085.94;5034540;28;20524;-71
2021/12/27 03:02:57;;;;;;;11.00;3.25;;;;;;;-13.18;86.19;99087.63;5051438;28;20064;-70
2021/12/27 03:05:26;;;;;;;11.35;3.95;;;;;;;-13.28;85.90;99060.91;5052362;28;20059;-70
2021/12/27 03:07:52;;;;;;;9.75;3.10;;;;;;;-13.06;85.67;99100.47;5051328;28;20033;-70
2021/12/27 03:10:21;;;;;;;13.98;3.80;;;;;;;-13.11;85.95;99097.09;5034973;28;20053;-69
2021/12/27 03:12:48;;;;;;;7.95;2.33;;;;;;;-13.05;85.67;99104.81;5051273;28;20060;-69
2021/12/27 03:15:15;;;;;;;9.00;3.15;;;;;;;-13.00;85.70;99108.22;5051208;28;20045;-69
2021/12/27 03:17:43;;;;;;;12.43;3.40;;;;;;;-12.97;85.67;99115.97;5008106;28;20045;-69
2021/12/27 03:20:10;;;;;;;10.98;3.47;;;;;;;-12.95;85.70;99111.59;5014439;28;20151;-70
2021/12/27 03:22:41;;;;;;;9.80;3.47;;;;;;;-12.97;85.58;99115.13;5031865;28;20077;-69
2021/12/27 03:25:09;;;;;;;9.88;4.20;;;;;;;-12.92;85.85;99108.97;5030344;28;20078;-70
2021/12/27 03:27:35;;;;;;;9.75;3.42;;;;;;;-12.94;85.51;99112.47;5033870;28;20140;-68
2021/12/27 03:30:03;;;;;;;10.55;3.60;;;;;;;-13.07;85.71;99084.91;5013851;28;20132;-69
2021/12/27 03:32:31;;;;;;;9.68;3.83;;;;;;;-12.84;85.54;99124.47;5030227;28;20056;-68
2021/12/27 03:35:07;;;;;;;12.00;4.13;;;;;;;-13.00;86.20;99108.22;5046268;28;20045;-69
2021/12/27 03:37:34;;;;;;;14.25;3.55;;;;;;;-12.82;85.18;99132.28;5015035;28;20049;-68
2021/12/27 03:40:00;;;;;;;10.40;3.35;;;;;;;-12.88;85.79;99134.06;5029858;28;20087;-69
2021/12/27 03:42:25;;;;;;;10.88;2.92;;;;;;;-12.81;85.49;99140.06;5029988;28;20144;-68
2021/12/27 03:44:51;;;;;;;9.23;3.10;;;;;;;-12.81;85.63;99149.59;5029646;28;20045;-70
2021/12/27 03:47:17;;;;;;;11.07;3.50;;;;;;;-12.78;85.61;99154.78;5048346;28;20053;-70
2021/12/27 03:49:43;;;;;;;7.70;2.13;;;;;;;-12.78;85.72;99155.63;5032794;28;20104;-70
2021/12/27 03:52:10;;;;;;;9.35;3.25;;;;;;;-12.96;85.17;99114.25;5015934;28;20045;-70
2021/12/27 03:54:36;;;;;;;14.80;3.67;;;;;;;-12.98;85.24;99103.88;5033291;28;20412;-69
2021/12/27 03:57:02;;;;;;;12.50;4.10;;;;;;;-12.76;85.44;99137.38;5015358;28;20068;-70
2021/12/27 03:59:52;;;;;;;9.60;3.45;;;;;;;-12.73;85.73;99150.34;5032135;28;20049;-70
2021/12/27 04:02:18;;;;;;;13.35;4.18;;;;;;;-12.69;85.26;99160.69;5051801;28;20350;-66
2021/12/27 04:04:44;;;;;;;8.48;2.92;;;;;;;-12.77;85.23;99143.47;5038290;28;20041;-75
2021/12/27 04:07:11;;;;;;;11.05;3.97;;;;;;;-12.80;85.07;99153.91;5045774;28;20052;-69
2021/12/27 04:09:37;;;;;;;8.40;2.45;;;;;;;-12.77;nan;99146.09;5046362;28;20045;-68
2021/12/27 04:12:04;;;;;;;12.60;3.10;;;;;;;-12.78;85.65;99165.19;5024279;28;20049;-68
2021/12/27 04:14:30;;;;;;;11.05;3.72;;;;;;;-13.09;85.30;99120.47;5034458;28;20072;-67
2021/12/27 04:16:56;;;;;;;11.13;4.47;;;;;;;-12.77;85.50;99180.75;5012672;28;20422;-67
2021/12/27 04:19:22;;;;;;;10.93;2.92;;;;;;;-12.90;85.79;99167.06;5028633;28;20148;-73
2021/12/27 04:21:48;;;;;;;10.80;3.65;;;;;;;-12.84;85.98;99175.66;5020049;28;20048;-68
2021/12/27 04:24:14;;;;;;;11.45;3.45;;;;;;;-12.81;85.24;99186.03;5032800;28;20136;-68
2021/12/27 04:26:40;;;;;;;10.75;3.97;;;;;;;-13.01;85.44;99161.13;5010317;28;20068;-70
2021/12/27 04:29:06;;;;;;;12.85;4.72;;;;;;;-12.89;85.67;99189.59;5017257;28;20075;-68
2021/12/27 04:31:32;;;;;;;8.77;3.30;;;;;;;-12.93;85.76;99185.31;5011405;28;20037;-68
2021/12/27 04:33:58;;;;;;;11.32;3.60;;;;;;;-12.83;85.54;99198.19;5031334;28;20060;-67
2021/12/27 04:36:24;;;;;;;11.05;4.18;;;;;;;-12.86;86.05;99190.44;5013655;28;20044;-68
2021/12/27 04:38:50;;;;;;;10.15;3.15;;;;;;;-12.81;86.34;99201.66;5014415;28;20124;-67
2021/12/27 04:41:19;;;;;;;12.13;3.92;;;;;;;-12.82;86.26;99199.94;5016238;28;20041;-69
2021/12/27 04:43:45;;;;;;;11.18;3.47;;;;;;;-12.77;85.59;99209.38;5033409;28;20077;-68
2021/12/27 04:46:11;;;;;;;12.02;4.30;;;;;;;-12.79;85.41;99210.31;5018627;28;20041;-71
2021/12/27 04:48:37;;;;;;;11.02;3.42;;;;;;;-12.86;86.11;99198.25;5053710;28;20053;-68
2021/12/27 04:51:02;;;;;;;10.10;3.92;;;;;;;-12.81;86.52;99225.06;5002268;28;20064;-68
2021/12/27 04:53:28;;;;;;;12.32;4.15;;;;;;;-13.17;85.96;99163.03;5033077;28;20071;-68
2021/12/27 04:55:54;;;;;;;9.90;3.05;;;;;;;-12.90;84.92;99224.28;5016417;28;20055;-68
2021/12/27 04:58:22;;;;;;;11.60;3.53;;;;;;;-13.05;86.30;99192.38;5015745;28;20075;-68
2021/12/27 05:00:48;;;;;;;12.07;4.22;;;;;;;-12.90;86.05;99221.69;5033007;28;20037;-68
2021/12/27 05:03:14;;;;;;;11.88;4.43;;;;;;;-12.84;86.38;99232.91;5049399;28;20052;-67
2021/12/27 05:05:45;;;;;;;9.25;3.17;;;;;;;-12.86;86.36;99232.94;5016625;28;20104;-68
2021/12/27 05:08:11;;;;;;;13.40;4.38;;;;;;;-12.92;85.89;99236.44;5049233;28;20118;-68
2021/12/27 05:10:37;;;;;;;10.63;3.63;;;;;;;-12.86;85.91;99250.28;5032506;28;20064;-68
2021/12/27 05:13:04;;;;;;;12.55;4.50;;;;;;;-12.92;86.05;99236.44;5049330;28;20060;-68
2021/12/27 05:15:30;;;;;;;12.77;4.40;;;;;;;-12.92;86.17;99236.44;5049140;28;20053;-68
2021/12/27 05:17:56;;;;;;;11.45;3.47;;;;;;;-13.12;86.39;99207.19;5032811;28;20443;-68
2021/12/27 05:20:21;;;;;;;13.27;5.35;;;;;;;-12.95;85.63;99256.44;5032805;28;20037;-68
2021/12/27 05:22:47;;;;;;;13.35;4.40;;;;;;;-13.04;86.19;99240.94;5016642;28;20049;-68
2021/12/27 05:25:16;;;;;;;11.00;4.05;;;;;;;-13.19;86.64;99226.34;5049142;28;20068;-68
2021/12/27 05:27:43;;;;;;;10.43;3.83;;;;;;;-12.99;86.27;99260.78;5049701;28;20132;-68
2021/12/27 05:30:11;;;;;;;13.85;4.60;;;;;;;-13.02;85.82;99263.44;5032268;28;20569;-68
2021/12/27 05:32:38;;;;;;;11.35;3.72;;;;;;;-13.29;86.44;99225.59;5048701;28;20106;-68
2021/12/27 05:35:05;;;;;;;12.70;4.97;;;;;;;-13.40;86.59;99206.63;5035094;28;20045;-68
2021/12/27 05:37:32;;;;;;;11.27;4.07;;;;;;;-13.17;87.04;99251.44;5052568;28;20079;-68
2021/12/27 05:40:04;;;;;;;11.07;4.45;;;;;;;-13.19;86.82;99260.16;5019103;28;20045;-68
2021/12/27 05:42:35;;;;;;;13.48;4.07;;;;;;;-13.09;86.81;99277.38;5052870;28;20041;-68
2021/12/27 05:45:01;;;;;;;13.60;5.20;;;;;;;-13.13;86.52;99278.28;5053964;28;20134;-69
2021/12/27 05:47:27;;;;;;;15.93;4.97;;;;;;;-13.18;86.64;99264.47;5036338;28;20148;-68
2021/12/27 05:49:53;;;;;;;9.07;3.08;;;;;;;-13.09;86.49;99279.09;5053399;28;20128;-69
2021/12/27 05:52:19;;;;;;;12.10;4.40;;;;;;;-13.35;87.01;99242.97;5004283;28;20041;-68
2021/12/27 05:54:45;;;;;;;13.65;4.60;;;;;;;-13.16;86.69;99288.69;5037590;28;20090;-68
2021/12/27 05:57:13;;;;;;;12.63;4.90;;;;;;;-13.12;86.89;99300.81;5038396;28;20051;-68
2021/12/27 05:59:39;;;;;;;12.43;4.97;;;;;;;-13.11;86.02;99312.94;5056662;28;20045;-68
2021/12/27 06:02:05;;;;;;;12.25;4.40;;;;;;;-13.33;86.27;99264.63;5054275;28;20044;-68
2021/12/27 06:04:31;;;;;;;10.73;3.60;;;;;;;-13.54;86.19;99235.34;5019868;28;20044;-68
2021/12/27 06:06:57;;;;;;;10.63;4.30;;;;;;;-13.08;85.65;99314.66;5019976;28;20206;-69
2021/12/27 06:09:23;;;;;;;12.88;5.07;;;;;;;-13.20;85.67;99302.59;5052735;28;20185;-68
2021/12/27 06:11:50;;;;;;;12.82;4.60;;;;;;;-13.10;85.89;99319.00;5036895;28;20386;-69
2021/12/27 06:14:17;;;;;;;12.15;4.72;;;;;;;-13.07;86.27;99321.59;5019598;28;20049;-69
2021/12/27 06:16:43;;;;;;;13.32;4.47;;;;;;;-13.08;86.03;99323.31;5052206;28;20056;-69
2021/12/27 06:19:09;;;;;;;9.90;3.30;;;;;;;-13.07;86.35;99329.38;5035649;28;20040;-68
2021/12/27 06:21:36;;;;;;;12.52;4.78;;;;;;;-13.26;85.31;99318.31;5035275;28;20422;-68
2021/12/27 06:24:03;;;;;;;14.23;3.92;;;;;;;-13.15;85.28;99337.25;5052580;28;20044;-68
2021/12/27 06:26:29;;;;;;;13.57;4.05;;;;;;;-13.31;85.10;99310.53;5053850;28;20048;-68
2021/12/27 06:28:55;;;;;;;13.63;3.25;;;;;;;-13.05;85.58;99344.13;5002239;28;20056;-69
2021/12/27 06:31:22;;;;;;;12.77;4.55;;;;;;;-13.17;85.19;99329.44;5018319;28;20466;-69
2021/12/27 06:33:48;;;;;;;13.88;4.55;;;;;;;-13.10;85.26;99343.28;5018586;28;20056;-69
2021/12/27 06:36:15;;;;;;;13.18;4.53;;;;;;;-13.25;85.26;99320.03;5018710;28;20043;-70
2021/12/27 06:38:41;;;;;;;11.85;4.30;;;;;;;-13.08;85.78;99346.72;5035063;28;20041;-68
2021/12/27 06:41:07;;;;;;;12.13;4.30;;;;;;;-13.05;85.35;99349.31;5002456;28;20059;-68
2021/12/27 06:43:33;;;;;;;10.48;4.47;;;;;;;-13.22;84.77;99322.56;5019989;28;20067;-69
2021/12/27 06:45:59;;;;;;;11.20;3.92;;;;;;;-13.20;84.34;99347.69;5035657;28;20049;-68
2021/12/27 06:48:26;;;;;;;12.10;4.28;;;;;;;-13.35;84.24;99333.97;5036095;28;20110;-69
2021/12/27 06:50:51;;;;;;;10.88;4.35;;;;;;;-13.22;85.33;99353.78;5052330;28;20045;-69
2021/12/27 06:53:17;;;;;;;13.75;4.15;;;;;;;-13.26;85.55;99357.31;5051496;28;20415;-68
2021/12/27 06:55:44;;;;;;;14.30;4.47;;;;;;;-13.18;85.24;99369.34;5051559;28;20080;-69
2021/12/27 06:58:10;;;;;;;11.93;4.90;;;;;;;-13.24;84.75;99363.34;5035411;28;20056;-69
2021/12/27 07:00:36;;;;;;;10.80;4.03;;;;;;;-13.14;85.33;99370.19;5034922;28;20051;-69
2021/12/27 07:03:02;;;;;;;12.75;4.65;;;;;;;-13.16;85.07;99367.59;5018262;28;20037;-69
2021/12/27 07:05:28;;;;;;;8.35;2.88;;;;;;;-13.33;84.72;99347.84;5037070;28;20056;-69
2021/12/27 07:07:53;;;;;;;11.27;4.25;;;;;;;-13.23;84.98;99365.09;5020621;28;20507;-69
2021/12/27 07:10:22;;;;;;;14.30;5.60;;;;;;;-13.12;84.40;99378.84;5034412;28;20067;-69
2021/12/27 07:12:49;;;;;;;11.38;3.75;;;;;;;-13.11;84.10;99385.75;5034851;28;20044;-69
2021/12/27 07:15:14;;;;;;;14.00;3.13;;;;;;;-13.18;83.89;99358.06;5051681;28;20053;-69
2021/12/27 07:17:40;;;;;;;11.52;3.13;;;;;;;-13.19;83.67;99341.63;5001828;28;20190;-69
2021/12/27 07:20:07;;;;;;;15.82;4.30;;;;;;;-13.03;83.11;99378.75;5002704;28;20451;-69
2021/12/27 07:22:33;;;;;;;9.75;2.78;;;;;;;-13.22;83.19;99361.59;5034772;28;20473;-68
2021/12/27 07:24:59;;;;;;;9.45;3.35;;;;;;;-13.01;83.40;99383.97;5051262;28;20041;-69
2021/12/27 07:27:25;;;;;;;15.05;4.15;;;;;;;-13.13;82.96;99367.56;5034348;28;20052;-69
2021/12/27 07:29:51;;;;;;;13.07;4.57;;;;;;;-12.96;83.11;99389.97;5003339;28;20048;-69
2021/12/27 07:32:17;;;;;;;9.68;3.95;;;;;;;-12.99;82.43;99392.59;5019435;28;20056;-68
2021/12/27 07:34:43;;;;;;;9.77;3.28;;;;;;;-13.06;82.08;99386.59;5019012;28;20048;-69
2021/12/27 07:37:09;;;;;;;10.70;4.20;;;;;;;-13.32;82.52;99366.00;5053094;28;20041;-69
2021/12/27 07:39:35;;;;;;;18.10;3.97;;;;;;;-13.06;82.18;99412.59;5051258;28;20059;-69
2021/12/27 07:42:01;;;;;;;12.18;3.92;;;;;;;-13.09;82.67;99399.59;5053745;28;20049;-69
2021/12/27 07:44:27;;;;;;;11.65;5.10;;;;;;;-13.08;82.50;99401.34;5017788;28;20173;-69
2021/12/27 07:46:53;;;;;;;12.70;3.58;;;;;;;-13.07;82.51;99392.66;5003693;28;20113;-69
2021/12/27 07:49:19;;;;;;;7.20;2.50;;;;;;;-13.20;81.61;99380.63;5051057;28;20056;-69
2021/12/27 07:51:45;;;;;;;13.90;4.03;;;;;;;-13.00;81.93;99415.16;5034637;28;20052;-69
2021/12/27 07:54:11;;;;;;;11.32;4.10;;;;;;;-13.08;81.59;99411.75;5041105;28;20049;-68
2021/12/27 07:56:40;;;;;;;11.75;4.05;;;;;;;-13.02;81.53;99421.22;5014399;28;20049;-69
2021/12/27 07:59:06;;;;;;;12.57;3.58;;;;;;;-12.86;81.91;99437.63;5032019;28;20420;-69
2021/12/27 08:01:33;;;;;;;9.77;3.10;;;;;;;-12.89;82.22;99439.34;5014087;28;20075;-69
2021/12/27 08:03:59;;;;;;;11.50;3.90;;;;;;;-12.90;81.67;99437.63;5030631;28;20067;-67
2021/12/27 08:06:25;;;;;;;12.05;3.72;;;;;;;-12.90;81.79;99442.84;5015658;28;20045;-68
2021/12/27 08:08:50;;;;;;;10.68;3.05;;;;;;;-12.77;81.58;99447.94;5014810;28;20053;-68
2021/12/27 08:11:16;;;;;;;11.95;4.07;;;;;;;-12.74;81.12;99447.91;4999112;28;20084;-69
2021/12/27 08:13:42;;;;;;;11.57;3.63;;;;;;;-12.56;80.49;99447.75;5016745;28;20077;-68
2021/12/27 08:16:11;;;;;;;10.70;3.97;;;;;;;-12.55;80.17;99449.47;4981766;28;20092;-69
2021/12/27 08:18:37;;;;;;;12.25;4.28;;;;;;;-12.19;78.64;99455.22;5033774;28;20409;-69
2021/12/27 08:21:03;;;;;;;8.88;3.38;;;;;;;-12.26;79.33;99461.38;5016234;28;20584;-68
2021/12/27 08:23:29;;;;;;;12.23;4.45;;;;;;;-12.23;78.58;99445.72;5050857;28;20078;-69
2021/12/27 08:25:55;;;;;;;6.93;2.42;;;;;;;-12.08;78.09;99450.75;4997307;28;20087;-69
2021/12/27 08:28:21;;;;;;;13.00;4.18;;;;;;;-12.02;76.81;99444.63;5015132;28;20497;-69
2021/12/27 08:30:46;;;;;;;13.73;3.80;;;;;;;-11.43;75.40;99459.50;5031163;28;20046;-69
2021/12/27 08:33:12;;;;;;;11.20;4.15;;;;;;;-10.93;73.43;99452.72;5014887;28;20425;-69
2021/12/27 08:35:40;;;;;;;11.05;4.07;;;;;;;-9.90;68.53;99431.78;4998173;28;20053;-69
2021/12/27 08:38:08;;;;;;;10.27;3.45;;;;;;;-9.21;66.49;99465.25;4999583;28;20045;-69
2021/12/27 08:40:34;;;;;;;10.82;4.38;;;;;;;-8.35;62.89;99443.09;4999942;28;20073;-69
2021/12/27 08:42:59;;;;;;;11.63;3.90;;;;;;;-8.09;61.94;99436.31;4982818;28;20037;-68
2021/12/27 08:45:25;;;;;;;11.38;4.05;;;;;;;-6.82;59.12;99390.59;4999638;28;20040;-69
2021/12/27 08:47:51;;;;;;;10.75;3.50;;;;;;;-5.95;55.16;99428.88;5048192;28;20064;-68
2021/12/27 08:50:17;;;;;;;11.27;3.83;;;;;;;-6.05;54.56;99423.06;5033765;28;20049;-69
2021/12/27 08:52:45;;;;;;;9.90;3.72;;;;;;;-6.02;53.57;99451.06;5016588;28;20068;-68
2021/12/27 08:55:12;;;;;;;9.80;4.38;;;;;;;-5.65;51.40;99434.78;4999676;28;20064;-69
2021/12/27 08:57:39;;;;;;;9.85;3.85;;;;;;;-6.60;54.46;99432.81;5014351;28;20417;-69
2021/12/27 09:00:07;;;;;;;15.27;5.47;;;;;;;-7.14;55.79;99442.34;5048363;28;20477;-69
2021/12/27 09:02:33;;;;;;;11.95;3.92;;;;;;;-6.89;55.16;99439.00;5017068;28;20045;-68
2021/12/27 09:04:59;;;;;;;11.40;4.47;;;;;;;-5.59;53.84;99435.44;5017184;28;20489;-69
2021/12/27 09:07:26;;;;;;;10.40;2.97;;;;;;;-5.24;52.35;99445.56;5015482;28;20136;-68
2021/12/27 09:09:51;;;;;;;10.55;3.50;;;;;;;-4.37;51.17;99439.50;5034745;28;20551;-70
2021/12/27 09:12:19;;;;;;;11.82;4.05;;;;;;;-5.07;50.92;99410.69;5037004;28;20061;-69
2021/12/27 09:14:45;;;;;;;11.88;3.92;;;;;;;-5.52;52.33;99450.97;5020945;28;20531;-69
2021/12/27 09:17:10;;;;;;;8.18;2.88;;;;;;;-3.85;50.56;99444.38;5035897;28;20551;-69
2021/12/27 09:19:36;;;;;;;10.35;3.88;;;;;;;-4.50;49.56;99438.28;5035939;28;20041;-70
2021/12/27 09:22:02;;;;;;;9.20;3.15;;;;;;;-3.35;49.25;99446.56;5035122;28;20527;-69
2021/12/27 09:24:31;;;;;;;9.75;3.95;;;;;;;-4.81;49.29;99442.16;4985663;28;20132;-69
2021/12/27 09:26:58;;;;;;;9.60;3.58;;;;;;;-4.64;50.81;99447.63;5018259;28;20038;-69
2021/12/27 09:29:24;;;;;;;11.80;4.78;;;;;;;-4.98;50.10;99444.56;5034968;28;20060;-70
2021/12/27 09:31:52;;;;;;;13.85;5.22;;;;;;;-3.79;47.99;99446.75;5017109;28;20041;-69
2021/12/27 09:34:19;;;;;;;11.13;4.45;;;;;;;-3.07;46.10;99451.44;5036355;28;20501;-69
2021/12/27 09:36:45;;;;;;;12.13;4.80;;;;;;;-3.44;46.66;99455.75;5034672;28;20075;-70
2021/12/27 09:39:11;;;;;;;11.23;4.70;;;;;;;-4.91;48.52;99451.31;5053166;28;20122;-70
2021/12/27 09:41:37;;;;;;;11.85;4.15;;;;;;;-4.28;49.03;99444.38;5033729;28;20080;-68
2021/12/27 09:44:04;;;;;;;11.85;4.40;;;;;;;-4.10;48.65;99447.19;5055458;28;20089;-69
2021/12/27 09:46:31;;;;;;;10.35;4.20;;;;;;;-4.94;50.07;99448.81;5003912;28;20520;-69
2021/12/27 09:49:00;;;;;;;10.15;4.10;;;;;;;-5.03;50.56;99434.22;5036087;28;20045;-69
2021/12/27 09:51:28;;;;;;;10.25;4.05;;;;;;;-4.45;48.84;99441.59;5043099;28;20041;-69
2021/12/27 09:53:54;;;;;;;10.55;3.17;;;;;;;-2.86;46.74;99450.44;5055019;28;20483;-70
2021/12/27 09:56:20;;;;;;;11.57;5.18;;;;;;;-3.46;46.62;99461.13;5021464;28;20045;-69
2021/12/27 09:58:47;;;;;;;11.50;4.07;;;;;;;-4.36;47.98;99467.59;5054259;28;20079;-69
2021/12/27 10:01:15;;;;;;;10.88;4.60;;;;;;;-5.25;50.00;99463.16;5037634;28;20045;-69
2021/12/27 10:03:47;;;;;;;9.85;3.60;;;;;;;-5.11;50.47;99473.19;5053621;28;20056;-69
2021/12/27 10:06:15;;;;;;;11.30;3.50;;;;;;;-5.50;51.56;99457.06;5037872;28;20411;-69
2021/12/27 10:08:53;;;;;;;11.98;4.07;;;;;;;-5.83;52.00;99409.97;5054744;28;20059;-69
2021/12/27 10:11:21;;;;;;;10.27;4.28;;;;;;;-5.92;52.15;99457.72;5037704;28;20303;-69
2021/12/27 10:14:16;;;;;;;10.82;3.30;;;;;;;-4.18;50.06;99465.97;5055827;28;20139;-69
2021/12/27 10:16:52;;;;;;;14.25;4.45;;;;;;;-3.79;47.48;99439.69;5003973;28;20037;-69
2021/12/27 10:19:19;;;;;;;12.25;4.68;;;;;;;-5.30;51.11;99466.84;5052474;28;20159;-69
2021/12/27 10:21:49;;;;;;;10.18;4.10;;;;;;;-5.54;51.40;99461.59;5020893;28;20091;-69
2021/12/27 10:24:18;;;;;;;12.90;4.63;;;;;;;-4.77;49.53;99472.75;5055111;28;20107;-69
2021/12/27 10:26:47;;;;;;;13.98;4.93;;;;;;;-5.41;50.91;99486.56;5053313;28;20276;-69
2021/12/27 10:29:25;;;;;;;11.50;4.78;;;;;;;-5.79;51.80;99469.50;5023273;28;20045;-69
2021/12/27 10:32:10;;;;;;;11.57;4.72;;;;;;;-5.58;51.77;99488.94;5054063;28;20547;-69
2021/12/27 10:34:39;;;;;;;11.25;4.65;;;;;;;-5.82;51.85;99438.00;5054724;28;20385;-69
2021/12/27 10:37:20;;;;;;;11.10;3.80;;;;;;;-4.24;51.64;99477.66;5021326;28;20206;-69
2021/12/27 10:39:52;;;;;;;11.73;3.90;;;;;;;-2.93;47.92;99491.31;5053699;28;20041;-69
2021/12/27 10:42:26;;;;;;;13.70;4.15;;;;;;;-4.06;48.73;99480.44;5054170;28;20103;-69
2021/12/27 10:44:55;;;;;;;13.50;4.30;;;;;;;-4.66;49.48;99475.81;5036488;28;20045;-70
2021/12/27 10:47:27;;;;;;;11.35;3.80;;;;;;;-4.45;50.51;99483.81;5036694;28;20044;-69
2021/12/27 10:49:53;;;;;;;11.18;4.30;;;;;;;-5.11;50.95;99489.84;5055975;28;20051;-69
2021/12/27 10:52:19;;;;;;;11.82;4.63;;;;;;;-5.78;51.56;99459.81;5054776;28;20467;-70
2021/12/27 10:54:45;;;;;;;12.70;4.93;;;;;;;-5.79;51.52;99437.03;5021629;28;20073;-69
2021/12/27 10:57:12;;;;;;;10.82;3.95;;;;;;;-4.86;51.41;99481.03;5038050;28;20076;-69
2021/12/27 10:59:38;;;;;;;11.63;4.72;;;;;;;-4.99;50.46;99498.22;5055213;28;20049;-70
2021/12/27 11:02:13;;;;;;;11.25;4.75;;;;;;;-5.10;51.26;99488.94;5036964;28;20037;-69
2021/12/27 11:04:40;;;;;;;11.60;4.75;;;;;;;-4.96;51.01;99459.41;5053567;28;20053;-69
2021/12/27 11:07:06;;;;;;;10.55;4.57;;;;;;;-5.32;51.04;99476.63;5037679;28;20106;-70
2021/12/27 11:09:33;;;;;;;13.20;4.70;;;;;;;-4.14;49.82;99484.25;5054839;28;20496;-69
2021/12/27 11:12:00;;;;;;;10.65;4.55;;;;;;;-3.59;48.13;99461.72;5055335;28;20369;-70
2021/12/27 11:14:26;;;;;;;10.00;3.90;;;;;;;-4.26;48.57;99474.22;5054755;28;20071;-69
2021/12/27 11:16:54;;;;;;;10.25;4.63;;;;;;;-4.09;50.37;99476.16;5022111;28;20419;-69
2021/12/27 11:19:21;;;;;;;10.15;4.35;;;;;;;-4.43;50.16;99440.59;5037740;28;20104;-69
2021/12/27 11:21:49;;;;;;;12.27;4.40;;;;;;;-5.29;51.66;99490.53;5022847;28;20068;-69
2021/12/27 11:24:15;;;;;;;13.70;4.85;;;;;;;-6.62;55.79;99490.69;5037308;28;20041;-69
2021/12/27 11:26:42;;;;;;;14.05;5.13;;;;;;;-6.97;57.48;99498.78;5037186;28;20057;-69